sensor_id;sensor_type;location;lat;lon;timestamp;P1;durP1;ratioP1;P2;durP2;ratioP2
76622;SDS011;73145;48.170;16.350;2023-10-08T00:01:14;6.40;;;2.95;;
76622;SDS011;73145;48.170;16.350;2023-10-08T00:03:41;5.07;;;2.70;;
76622;SDS011;73145;48.170;16.350;2023-10-08T00:06:16;7.65;;;3.20;;
76622;SDS011;73145;48.170;16.350;2023-10-08T00:08:44;6.88;;;2.85;;
76622;SDS011;73145;48.170;16.350;2023-10-08T00:11:10;5.45;;;2.80;;
76622;SDS011;73145;48.170;16.350;2023-10-08T00:13:36;6.50;;;3.13;;
76622;SDS011;73145;48.170;16.350;2023-10-08T00:16:08;6.65;;;3.50;;
76622;SDS011;73145;48.170;16.350;2023-10-08T00:18:41;5.70;;;3.22;;
76622;SDS011;73145;48.170;16.350;2023-10-08T00:21:14;5.00;;;2.50;;
76622;SDS011;73145;48.170;16.350;2023-10-08T00:23:39;6.30;;;4.40;;
76622;SDS011;73145;48.170;16.350;2023-10-08T00:26:07;6.13;;;3.15;;
76622;SDS011;73145;48.170;16.350;2023-10-08T00:28:33;6.13;;;3.22;;
76622;SDS011;73145;48.170;16.350;2023-10-08T00:30:58;6.45;;;3.13;;
76622;SDS011;73145;48.170;16.350;2023-10-08T00:33:31;6.28;;;3.15;;
76622;SDS011;73145;48.170;16.350;2023-10-08T00:35:57;6.05;;;3.50;;
76622;SDS011;73145;48.170;16.350;2023-10-08T00:38:22;6.03;;;3.50;;
76622;SDS011;73145;48.170;16.350;2023-10-08T00:40:50;5.50;;;3.10;;
76622;SDS011;73145;48.170;16.350;2023-10-08T00:43:33;10.98;;;3.00;;
76622;SDS011;73145;48.170;16.350;2023-10-08T00:46:03;5.40;;;2.90;;
76622;SDS011;73145;48.170;16.350;2023-10-08T00:48:48;5.05;;;2.95;;
76622;SDS011;73145;48.170;16.350;2023-10-08T00:51:16;5.53;;;3.13;;
76622;SDS011;73145;48.170;16.350;2023-10-08T00:53:55;6.22;;;2.97;;
76622;SDS011;73145;48.170;16.350;2023-10-08T00:56:30;9.57;;;2.80;;
76622;SDS011;73145;48.170;16.350;2023-10-08T00:59:16;5.15;;;3.33;;
76622;SDS011;73145;48.170;16.350;2023-10-08T01:01:49;7.25;;;2.83;;
76622;SDS011;73145;48.170;16.350;2023-10-08T01:04:29;8.13;;;3.50;;
76622;SDS011;73145;48.170;16.350;2023-10-08T01:06:59;6.93;;;3.10;;
76622;SDS011;73145;48.170;16.350;2023-10-08T01:09:26;5.40;;;2.70;;
76622;SDS011;73145;48.170;16.350;2023-10-08T01:14:45;6.30;;;3.20;;
76622;SDS011;73145;48.170;16.350;2023-10-08T01:17:12;7.88;;;3.97;;
76622;SDS011;73145;48.170;16.350;2023-10-08T01:19:45;5.07;;;3.38;;
76622;SDS011;73145;48.170;16.350;2023-10-08T01:22:15;4.55;;;2.83;;
76622;SDS011;73145;48.170;16.350;2023-10-08T01:24:46;9.82;;;3.25;;
76622;SDS011;73145;48.170;16.350;2023-10-08T01:27:16;8.48;;;3.28;;
76622;SDS011;73145;48.170;16.350;2023-10-08T01:29:47;6.93;;;3.40;;
76622;SDS011;73145;48.170;16.350;2023-10-08T01:32:15;5.88;;;3.78;;
76622;SDS011;73145;48.170;16.350;2023-10-08T01:34:41;5.75;;;3.72;;
76622;SDS011;73145;48.170;16.350;2023-10-08T01:37:11;4.78;;;3.08;;
76622;SDS011;73145;48.170;16.350;2023-10-08T01:39:42;8.23;;;3.17;;
76622;SDS011;73145;48.170;16.350;2023-10-08T01:42:11;7.13;;;3.25;;
76622;SDS011;73145;48.170;16.350;2023-10-08T01:44:44;5.82;;;3.00;;
76622;SDS011;73145;48.170;16.350;2023-10-08T01:47:11;5.75;;;3.13;;
76622;SDS011;73145;48.170;16.350;2023-10-08T01:49:37;7.30;;;2.92;;
76622;SDS011;73145;48.170;16.350;2023-10-08T01:52:04;6.03;;;2.97;;
76622;SDS011;73145;48.170;16.350;2023-10-08T01:54:34;8.25;;;4.38;;
76622;SDS011;73145;48.170;16.350;2023-10-08T01:57:03;6.82;;;2.80;;
76622;SDS011;73145;48.170;16.350;2023-10-08T01:59:31;4.88;;;3.08;;
76622;SDS011;73145;48.170;16.350;2023-10-08T02:01:57;5.85;;;3.10;;
76622;SDS011;73145;48.170;16.350;2023-10-08T02:04:23;9.02;;;3.08;;
76622;SDS011;73145;48.170;16.350;2023-10-08T02:06:48;5.82;;;2.92;;
76622;SDS011;73145;48.170;16.350;2023-10-08T02:09:13;5.90;;;3.58;;
76622;SDS011;73145;48.170;16.350;2023-10-08T02:11:41;8.57;;;3.42;;
76622;SDS011;73145;48.170;16.350;2023-10-08T02:14:16;12.98;;;3.03;;
76622;SDS011;73145;48.170;16.350;2023-10-08T02:16:43;5.00;;;3.17;;
76622;SDS011;73145;48.170;16.350;2023-10-08T02:19:09;7.72;;;3.13;;
76622;SDS011;73145;48.170;16.350;2023-10-08T02:21:38;6.28;;;2.83;;
76622;SDS011;73145;48.170;16.350;2023-10-08T02:24:06;7.78;;;3.13;;
76622;SDS011;73145;48.170;16.350;2023-10-08T02:26:33;4.63;;;2.83;;
76622;SDS011;73145;48.170;16.350;2023-10-08T02:29:02;5.82;;;3.03;;
76622;SDS011;73145;48.170;16.350;2023-10-08T02:31:35;8.05;;;3.97;;
76622;SDS011;73145;48.170;16.350;2023-10-08T02:34:02;5.55;;;2.90;;
76622;SDS011;73145;48.170;16.350;2023-10-08T02:36:28;8.43;;;2.60;;
76622;SDS011;73145;48.170;16.350;2023-10-08T02:38:53;9.68;;;3.72;;
76622;SDS011;73145;48.170;16.350;2023-10-08T02:41:20;7.80;;;3.40;;
76622;SDS011;73145;48.170;16.350;2023-10-08T02:43:46;6.05;;;3.00;;
76622;SDS011;73145;48.170;16.350;2023-10-08T02:46:13;6.20;;;3.22;;
76622;SDS011;73145;48.170;16.350;2023-10-08T02:48:40;6.28;;;3.05;;
76622;SDS011;73145;48.170;16.350;2023-10-08T02:51:06;8.18;;;3.92;;
76622;SDS011;73145;48.170;16.350;2023-10-08T02:53:40;6.18;;;3.22;;
76622;SDS011;73145;48.170;16.350;2023-10-08T02:56:10;4.72;;;3.15;;
76622;SDS011;73145;48.170;16.350;2023-10-08T02:58:39;5.05;;;2.72;;
76622;SDS011;73145;48.170;16.350;2023-10-08T03:01:05;7.35;;;3.00;;
76622;SDS011;73145;48.170;16.350;2023-10-08T03:03:32;5.97;;;2.97;;
76622;SDS011;73145;48.170;16.350;2023-10-08T03:05:58;5.88;;;2.75;;
76622;SDS011;73145;48.170;16.350;2023-10-08T03:08:23;6.57;;;3.35;;
76622;SDS011;73145;48.170;16.350;2023-10-08T03:10:52;6.65;;;2.88;;
76622;SDS011;73145;48.170;16.350;2023-10-08T03:13:21;6.80;;;3.38;;
76622;SDS011;73145;48.170;16.350;2023-10-08T03:15:47;5.85;;;2.90;;
76622;SDS011;73145;48.170;16.350;2023-10-08T03:18:28;4.40;;;2.78;;
76622;SDS011;73145;48.170;16.350;2023-10-08T03:21:15;6.00;;;2.90;;
76622;SDS011;73145;48.170;16.350;2023-10-08T03:23:48;5.30;;;2.95;;
76622;SDS011;73145;48.170;16.350;2023-10-08T03:26:16;5.90;;;2.80;;
76622;SDS011;73145;48.170;16.350;2023-10-08T03:29:01;6.53;;;2.90;;
76622;SDS011;73145;48.170;16.350;2023-10-08T03:31:41;8.05;;;3.20;;
76622;SDS011;73145;48.170;16.350;2023-10-08T03:34:18;8.95;;;3.20;;
76622;SDS011;73145;48.170;16.350;2023-10-08T03:36:44;7.22;;;3.00;;
76622;SDS011;73145;48.170;16.350;2023-10-08T03:39:11;6.78;;;3.45;;
76622;SDS011;73145;48.170;16.350;2023-10-08T03:41:43;7.82;;;3.20;;
76622;SDS011;73145;48.170;16.350;2023-10-08T03:44:30;5.03;;;3.17;;
76622;SDS011;73145;48.170;16.350;2023-10-08T03:46:55;6.45;;;3.28;;
76622;SDS011;73145;48.170;16.350;2023-10-08T03:49:22;7.50;;;3.80;;
76622;SDS011;73145;48.170;16.350;2023-10-08T03:51:48;4.25;;;3.10;;
76622;SDS011;73145;48.170;16.350;2023-10-08T03:54:17;5.18;;;3.13;;
76622;SDS011;73145;48.170;16.350;2023-10-08T03:56:58;7.82;;;4.15;;
76622;SDS011;73145;48.170;16.350;2023-10-08T03:59:25;8.88;;;3.28;;
76622;SDS011;73145;48.170;16.350;2023-10-08T04:01:54;6.45;;;2.90;;
76622;SDS011;73145;48.170;16.350;2023-10-08T04:04:23;7.68;;;3.45;;
76622;SDS011;73145;48.170;16.350;2023-10-08T04:06:55;6.57;;;3.13;;
76622;SDS011;73145;48.170;16.350;2023-10-08T04:09:41;4.60;;;2.92;;
76622;SDS011;73145;48.170;16.350;2023-10-08T04:12:07;6.63;;;2.90;;
76622;SDS011;73145;48.170;16.350;2023-10-08T04:14:36;8.75;;;4.40;;
76622;SDS011;73145;48.170;16.350;2023-10-08T04:17:01;9.60;;;5.07;;
76622;SDS011;73145;48.170;16.350;2023-10-08T04:19:28;7.25;;;3.63;;
76622;SDS011;73145;48.170;16.350;2023-10-08T04:21:55;10.75;;;4.63;;
76622;SDS011;73145;48.170;16.350;2023-10-08T04:24:26;8.68;;;3.35;;
76622;SDS011;73145;48.170;16.350;2023-10-08T04:27:01;6.05;;;3.63;;
76622;SDS011;73145;48.170;16.350;2023-10-08T04:29:28;6.88;;;3.53;;
76622;SDS011;73145;48.170;16.350;2023-10-08T04:31:57;6.72;;;3.20;;
76622;SDS011;73145;48.170;16.350;2023-10-08T04:34:32;7.63;;;3.90;;
76622;SDS011;73145;48.170;16.350;2023-10-08T04:36:58;8.30;;;3.53;;
76622;SDS011;73145;48.170;16.350;2023-10-08T04:39:26;7.63;;;3.65;;
76622;SDS011;73145;48.170;16.350;2023-10-08T04:41:58;8.68;;;4.32;;
76622;SDS011;73145;48.170;16.350;2023-10-08T04:44:31;7.25;;;4.00;;
76622;SDS011;73145;48.170;16.350;2023-10-08T04:46:57;8.25;;;4.03;;
76622;SDS011;73145;48.170;16.350;2023-10-08T04:49:29;6.85;;;3.30;;
76622;SDS011;73145;48.170;16.350;2023-10-08T04:51:55;6.55;;;3.05;;
76622;SDS011;73145;48.170;16.350;2023-10-08T04:54:27;5.90;;;3.17;;
76622;SDS011;73145;48.170;16.350;2023-10-08T04:56:59;7.97;;;3.60;;
76622;SDS011;73145;48.170;16.350;2023-10-08T04:59:27;5.38;;;3.20;;
76622;SDS011;73145;48.170;16.350;2023-10-08T05:02:00;4.82;;;3.20;;
76622;SDS011;73145;48.170;16.350;2023-10-08T05:04:49;6.20;;;3.28;;
76622;SDS011;73145;48.170;16.350;2023-10-08T05:07:54;6.13;;;2.72;;
76622;SDS011;73145;48.170;16.350;2023-10-08T05:10:26;8.95;;;3.55;;
76622;SDS011;73145;48.170;16.350;2023-10-08T05:12:52;9.50;;;3.00;;
76622;SDS011;73145;48.170;16.350;2023-10-08T05:15:30;8.23;;;3.65;;
76622;SDS011;73145;48.170;16.350;2023-10-08T05:18:14;7.57;;;3.03;;
76622;SDS011;73145;48.170;16.350;2023-10-08T05:20:42;9.05;;;2.88;;
76622;SDS011;73145;48.170;16.350;2023-10-08T05:23:13;4.75;;;3.03;;
76622;SDS011;73145;48.170;16.350;2023-10-08T05:25:49;4.57;;;3.25;;
76622;SDS011;73145;48.170;16.350;2023-10-08T05:28:33;6.15;;;2.90;;
76622;SDS011;73145;48.170;16.350;2023-10-08T05:31:22;8.32;;;3.85;;
76622;SDS011;73145;48.170;16.350;2023-10-08T05:34:01;10.95;;;2.95;;
76622;SDS011;73145;48.170;16.350;2023-10-08T05:36:39;7.28;;;3.08;;
76622;SDS011;73145;48.170;16.350;2023-10-08T05:39:23;7.18;;;3.10;;
76622;SDS011;73145;48.170;16.350;2023-10-08T05:42:03;5.38;;;3.10;;
76622;SDS011;73145;48.170;16.350;2023-10-08T05:44:40;9.75;;;3.78;;
76622;SDS011;73145;48.170;16.350;2023-10-08T05:47:11;8.77;;;4.15;;
76622;SDS011;73145;48.170;16.350;2023-10-08T05:49:53;6.35;;;3.53;;
76622;SDS011;73145;48.170;16.350;2023-10-08T05:52:39;6.85;;;3.30;;
76622;SDS011;73145;48.170;16.350;2023-10-08T05:55:25;6.85;;;4.03;;
76622;SDS011;73145;48.170;16.350;2023-10-08T05:57:53;9.35;;;5.07;;
76622;SDS011;73145;48.170;16.350;2023-10-08T06:00:42;7.95;;;4.32;;
76622;SDS011;73145;48.170;16.350;2023-10-08T06:03:28;6.40;;;3.60;;
76622;SDS011;73145;48.170;16.350;2023-10-08T06:05:59;6.47;;;3.25;;
76622;SDS011;73145;48.170;16.350;2023-10-08T06:08:38;9.82;;;3.55;;
76622;SDS011;73145;48.170;16.350;2023-10-08T06:11:15;7.93;;;3.53;;
76622;SDS011;73145;48.170;16.350;2023-10-08T06:14:02;6.72;;;3.33;;
76622;SDS011;73145;48.170;16.350;2023-10-08T06:16:36;8.50;;;3.65;;
76622;SDS011;73145;48.170;16.350;2023-10-08T06:19:09;5.75;;;3.55;;
76622;SDS011;73145;48.170;16.350;2023-10-08T06:21:36;5.85;;;3.38;;
76622;SDS011;73145;48.170;16.350;2023-10-08T06:24:05;5.53;;;2.95;;
76622;SDS011;73145;48.170;16.350;2023-10-08T06:26:40;5.32;;;3.47;;
76622;SDS011;73145;48.170;16.350;2023-10-08T06:29:13;8.93;;;3.20;;
76622;SDS011;73145;48.170;16.350;2023-10-08T06:31:52;5.68;;;2.58;;
76622;SDS011;73145;48.170;16.350;2023-10-08T06:34:22;7.75;;;3.42;;
76622;SDS011;73145;48.170;16.350;2023-10-08T06:36:50;8.98;;;2.90;;
76622;SDS011;73145;48.170;16.350;2023-10-08T06:39:20;5.75;;;3.28;;
76622;SDS011;73145;48.170;16.350;2023-10-08T06:41:51;6.15;;;2.97;;
76622;SDS011;73145;48.170;16.350;2023-10-08T06:44:22;8.82;;;3.53;;
76622;SDS011;73145;48.170;16.350;2023-10-08T06:46:48;5.35;;;3.05;;
76622;SDS011;73145;48.170;16.350;2023-10-08T06:49:13;4.88;;;2.90;;
76622;SDS011;73145;48.170;16.350;2023-10-08T06:51:39;6.05;;;3.65;;
76622;SDS011;73145;48.170;16.350;2023-10-08T06:54:07;10.00;;;3.53;;
76622;SDS011;73145;48.170;16.350;2023-10-08T06:56:35;7.07;;;3.30;;
76622;SDS011;73145;48.170;16.350;2023-10-08T06:59:01;7.45;;;3.20;;
76622;SDS011;73145;48.170;16.350;2023-10-08T07:01:28;6.72;;;3.40;;
76622;SDS011;73145;48.170;16.350;2023-10-08T07:04:04;4.82;;;3.28;;
76622;SDS011;73145;48.170;16.350;2023-10-08T07:06:31;7.78;;;3.50;;
76622;SDS011;73145;48.170;16.350;2023-10-08T07:09:02;6.70;;;3.72;;
76622;SDS011;73145;48.170;16.350;2023-10-08T07:11:32;6.78;;;3.28;;
76622;SDS011;73145;48.170;16.350;2023-10-08T07:14:04;6.07;;;3.20;;
76622;SDS011;73145;48.170;16.350;2023-10-08T07:16:33;5.38;;;2.95;;
76622;SDS011;73145;48.170;16.350;2023-10-08T07:18:59;9.13;;;2.78;;
76622;SDS011;73145;48.170;16.350;2023-10-08T07:21:30;6.78;;;3.33;;
76622;SDS011;73145;48.170;16.350;2023-10-08T07:24:09;7.97;;;3.40;;
76622;SDS011;73145;48.170;16.350;2023-10-08T07:26:40;6.40;;;3.47;;
76622;SDS011;73145;48.170;16.350;2023-10-08T07:29:11;7.07;;;3.50;;
76622;SDS011;73145;48.170;16.350;2023-10-08T07:31:38;8.38;;;3.50;;
76622;SDS011;73145;48.170;16.350;2023-10-08T07:34:07;5.88;;;3.15;;
76622;SDS011;73145;48.170;16.350;2023-10-08T07:36:44;11.43;;;3.70;;
76622;SDS011;73145;48.170;16.350;2023-10-08T07:39:14;7.00;;;3.28;;
76622;SDS011;73145;48.170;16.350;2023-10-08T07:41:52;6.22;;;3.20;;
76622;SDS011;73145;48.170;16.350;2023-10-08T07:44:21;7.20;;;3.22;;
76622;SDS011;73145;48.170;16.350;2023-10-08T07:46:48;4.65;;;2.78;;
76622;SDS011;73145;48.170;16.350;2023-10-08T07:49:15;5.20;;;3.38;;
76622;SDS011;73145;48.170;16.350;2023-10-08T07:51:42;6.75;;;3.17;;
76622;SDS011;73145;48.170;16.350;2023-10-08T07:54:15;6.85;;;3.33;;
76622;SDS011;73145;48.170;16.350;2023-10-08T07:56:44;8.20;;;3.22;;
76622;SDS011;73145;48.170;16.350;2023-10-08T07:59:10;7.40;;;3.05;;
76622;SDS011;73145;48.170;16.350;2023-10-08T08:01:39;6.32;;;3.28;;
76622;SDS011;73145;48.170;16.350;2023-10-08T08:04:07;7.63;;;2.97;;
76622;SDS011;73145;48.170;16.350;2023-10-08T08:06:36;7.07;;;3.50;;
76622;SDS011;73145;48.170;16.350;2023-10-08T08:09:02;5.40;;;3.25;;
76622;SDS011;73145;48.170;16.350;2023-10-08T08:11:33;5.95;;;2.80;;
76622;SDS011;73145;48.170;16.350;2023-10-08T08:14:02;8.80;;;5.25;;
76622;SDS011;73145;48.170;16.350;2023-10-08T08:16:32;8.82;;;3.28;;
76622;SDS011;73145;48.170;16.350;2023-10-08T08:19:01;7.93;;;2.97;;
76622;SDS011;73145;48.170;16.350;2023-10-08T08:21:26;8.43;;;3.63;;
76622;SDS011;73145;48.170;16.350;2023-10-08T08:23:55;7.32;;;4.05;;
76622;SDS011;73145;48.170;16.350;2023-10-08T08:26:29;4.90;;;3.00;;
76622;SDS011;73145;48.170;16.350;2023-10-08T08:29:01;5.90;;;3.47;;
76622;SDS011;73145;48.170;16.350;2023-10-08T08:31:28;6.50;;;3.30;;
76622;SDS011;73145;48.170;16.350;2023-10-08T08:33:57;9.75;;;3.83;;
76622;SDS011;73145;48.170;16.350;2023-10-08T08:36:28;9.50;;;4.80;;
76622;SDS011;73145;48.170;16.350;2023-10-08T08:38:56;6.75;;;3.58;;
76622;SDS011;73145;48.170;16.350;2023-10-08T08:41:23;5.40;;;3.15;;
76622;SDS011;73145;48.170;16.350;2023-10-08T08:46:21;10.23;;;3.70;;
76622;SDS011;73145;48.170;16.350;2023-10-08T08:48:52;7.60;;;3.15;;
76622;SDS011;73145;48.170;16.350;2023-10-08T08:51:20;9.00;;;3.70;;
76622;SDS011;73145;48.170;16.350;2023-10-08T08:53:52;5.97;;;3.30;;
76622;SDS011;73145;48.170;16.350;2023-10-08T08:56:17;9.10;;;3.45;;
76622;SDS011;73145;48.170;16.350;2023-10-08T08:58:43;5.55;;;3.42;;
76622;SDS011;73145;48.170;16.350;2023-10-08T09:01:11;5.97;;;3.10;;
76622;SDS011;73145;48.170;16.350;2023-10-08T09:03:39;17.95;;;4.03;;
76622;SDS011;73145;48.170;16.350;2023-10-08T09:06:04;6.80;;;2.85;;
76622;SDS011;73145;48.170;16.350;2023-10-08T09:08:34;7.13;;;3.08;;
76622;SDS011;73145;48.170;16.350;2023-10-08T09:11:00;6.57;;;2.22;;
76622;SDS011;73145;48.170;16.350;2023-10-08T09:13:27;4.15;;;2.00;;
76622;SDS011;73145;48.170;16.350;2023-10-08T09:16:03;4.10;;;2.55;;
76622;SDS011;73145;48.170;16.350;2023-10-08T09:18:31;8.50;;;5.15;;
76622;SDS011;73145;48.170;16.350;2023-10-08T09:21:04;4.63;;;2.38;;
76622;SDS011;73145;48.170;16.350;2023-10-08T09:23:36;4.38;;;1.50;;
76622;SDS011;73145;48.170;16.350;2023-10-08T09:26:08;3.30;;;1.70;;
76622;SDS011;73145;48.170;16.350;2023-10-08T09:28:34;1.90;;;1.20;;
76622;SDS011;73145;48.170;16.350;2023-10-08T09:31:02;1.88;;;1.30;;
76622;SDS011;73145;48.170;16.350;2023-10-08T09:33:29;3.50;;;1.50;;
76622;SDS011;73145;48.170;16.350;2023-10-08T09:35:55;1.80;;;1.30;;
76622;SDS011;73145;48.170;16.350;2023-10-08T09:38:22;3.10;;;1.85;;
76622;SDS011;73145;48.170;16.350;2023-10-08T09:40:48;3.75;;;1.80;;
76622;SDS011;73145;48.170;16.350;2023-10-08T09:43:15;2.47;;;1.30;;
76622;SDS011;73145;48.170;16.350;2023-10-08T09:45:47;1.92;;;1.15;;
76622;SDS011;73145;48.170;16.350;2023-10-08T09:48:22;1.77;;;1.30;;
76622;SDS011;73145;48.170;16.350;2023-10-08T09:50:52;4.43;;;1.38;;
76622;SDS011;73145;48.170;16.350;2023-10-08T09:53:19;2.20;;;1.30;;
76622;SDS011;73145;48.170;16.350;2023-10-08T09:55:56;1.10;;;0.90;;
76622;SDS011;73145;48.170;16.350;2023-10-08T09:58:23;2.67;;;1.23;;
76622;SDS011;73145;48.170;16.350;2023-10-08T10:00:50;2.35;;;1.33;;
76622;SDS011;73145;48.170;16.350;2023-10-08T10:03:17;9.00;;;2.45;;
76622;SDS011;73145;48.170;16.350;2023-10-08T10:05:44;4.28;;;1.98;;
76622;SDS011;73145;48.170;16.350;2023-10-08T10:08:10;2.00;;;1.40;;
76622;SDS011;73145;48.170;16.350;2023-10-08T10:10:36;13.20;;;1.75;;
76622;SDS011;73145;48.170;16.350;2023-10-08T10:13:11;1.90;;;1.23;;
76622;SDS011;73145;48.170;16.350;2023-10-08T10:15:37;2.17;;;1.20;;
76622;SDS011;73145;48.170;16.350;2023-10-08T10:20:45;1.58;;;1.10;;
76622;SDS011;73145;48.170;16.350;2023-10-08T10:27:06;1.55;;;1.10;;
76622;SDS011;73145;48.170;16.350;2023-10-08T10:31:34;2.10;;;1.08;;
76622;SDS011;73145;48.170;16.350;2023-10-08T10:34:04;2.00;;;1.23;;
76622;SDS011;73145;48.170;16.350;2023-10-08T10:36:36;4.15;;;1.00;;
76622;SDS011;73145;48.170;16.350;2023-10-08T10:39:04;1.88;;;1.15;;
76622;SDS011;73145;48.170;16.350;2023-10-08T10:41:51;1.67;;;1.20;;
76622;SDS011;73145;48.170;16.350;2023-10-08T10:44:26;1.42;;;0.90;;
76622;SDS011;73145;48.170;16.350;2023-10-08T10:46:54;2.03;;;1.23;;
76622;SDS011;73145;48.170;16.350;2023-10-08T10:49:39;1.63;;;1.10;;
76622;SDS011;73145;48.170;16.350;2023-10-08T10:52:19;1.02;;;0.90;;
76622;SDS011;73145;48.170;16.350;2023-10-08T10:55:09;1.23;;;0.95;;
76622;SDS011;73145;48.170;16.350;2023-10-08T11:00:19;2.20;;;1.00;;
76622;SDS011;73145;48.170;16.350;2023-10-08T11:02:57;3.00;;;1.20;;
76622;SDS011;73145;48.170;16.350;2023-10-08T11:05:34;1.15;;;0.93;;
76622;SDS011;73145;48.170;16.350;2023-10-08T11:08:02;1.00;;;0.82;;
76622;SDS011;73145;48.170;16.350;2023-10-08T11:10:34;1.80;;;1.10;;
76622;SDS011;73145;48.170;16.350;2023-10-08T11:13:04;1.80;;;1.13;;
76622;SDS011;73145;48.170;16.350;2023-10-08T11:15:39;1.55;;;1.00;;
76622;SDS011;73145;48.170;16.350;2023-10-08T11:18:11;1.88;;;1.27;;
76622;SDS011;73145;48.170;16.350;2023-10-08T11:20:38;2.42;;;1.05;;
76622;SDS011;73145;48.170;16.350;2023-10-08T11:23:09;1.17;;;0.77;;
76622;SDS011;73145;48.170;16.350;2023-10-08T11:25:55;1.00;;;0.85;;
76622;SDS011;73145;48.170;16.350;2023-10-08T11:28:28;1.92;;;1.05;;
76622;SDS011;73145;48.170;16.350;2023-10-08T11:31:05;1.20;;;0.73;;
76622;SDS011;73145;48.170;16.350;2023-10-08T11:33:34;1.50;;;0.80;;
76622;SDS011;73145;48.170;16.350;2023-10-08T11:36:02;1.85;;;1.05;;
76622;SDS011;73145;48.170;16.350;2023-10-08T11:38:38;0.77;;;0.60;;
76622;SDS011;73145;48.170;16.350;2023-10-08T11:41:11;1.75;;;1.00;;
76622;SDS011;73145;48.170;16.350;2023-10-08T11:43:49;1.10;;;0.88;;
76622;SDS011;73145;48.170;16.350;2023-10-08T11:46:28;1.58;;;1.10;;
76622;SDS011;73145;48.170;16.350;2023-10-08T11:49:06;1.75;;;1.10;;
76622;SDS011;73145;48.170;16.350;2023-10-08T11:51:35;1.63;;;1.40;;
76622;SDS011;73145;48.170;16.350;2023-10-08T11:54:01;1.35;;;1.05;;
76622;SDS011;73145;48.170;16.350;2023-10-08T11:56:30;3.03;;;1.20;;
76622;SDS011;73145;48.170;16.350;2023-10-08T11:58:57;2.22;;;1.20;;
76622;SDS011;73145;48.170;16.350;2023-10-08T12:01:23;1.65;;;0.95;;
76622;SDS011;73145;48.170;16.350;2023-10-08T12:03:50;1.88;;;1.20;;
76622;SDS011;73145;48.170;16.350;2023-10-08T12:06:16;3.58;;;1.23;;
76622;SDS011;73145;48.170;16.350;2023-10-08T12:08:46;5.30;;;1.50;;
76622;SDS011;73145;48.170;16.350;2023-10-08T12:11:12;2.40;;;1.70;;
76622;SDS011;73145;48.170;16.350;2023-10-08T12:13:38;4.75;;;1.73;;
76622;SDS011;73145;48.170;16.350;2023-10-08T12:18:41;4.60;;;2.00;;
76622;SDS011;73145;48.170;16.350;2023-10-08T12:21:09;4.05;;;1.95;;
76622;SDS011;73145;48.170;16.350;2023-10-08T12:23:40;4.40;;;1.73;;
76622;SDS011;73145;48.170;16.350;2023-10-08T12:26:08;1.52;;;1.15;;
76622;SDS011;73145;48.170;16.350;2023-10-08T12:28:34;2.75;;;1.77;;
76622;SDS011;73145;48.170;16.350;2023-10-08T12:31:01;3.85;;;1.75;;
76622;SDS011;73145;48.170;16.350;2023-10-08T12:33:29;4.28;;;1.83;;
76622;SDS011;73145;48.170;16.350;2023-10-08T12:35:56;3.95;;;2.20;;
76622;SDS011;73145;48.170;16.350;2023-10-08T12:38:26;5.35;;;2.17;;
76622;SDS011;73145;48.170;16.350;2023-10-08T12:40:54;4.25;;;1.85;;
76622;SDS011;73145;48.170;16.350;2023-10-08T12:43:33;3.47;;;1.80;;
76622;SDS011;73145;48.170;16.350;2023-10-08T12:46:03;5.85;;;2.67;;
76622;SDS011;73145;48.170;16.350;2023-10-08T12:48:29;4.82;;;1.85;;
76622;SDS011;73145;48.170;16.350;2023-10-08T12:50:55;4.05;;;2.25;;
76622;SDS011;73145;48.170;16.350;2023-10-08T12:53:30;4.20;;;2.40;;
76622;SDS011;73145;48.170;16.350;2023-10-08T12:55:59;2.50;;;1.73;;
76622;SDS011;73145;48.170;16.350;2023-10-08T12:58:30;3.55;;;2.38;;
76622;SDS011;73145;48.170;16.350;2023-10-08T13:01:12;5.40;;;2.10;;
76622;SDS011;73145;48.170;16.350;2023-10-08T13:03:40;2.80;;;2.00;;
76622;SDS011;73145;48.170;16.350;2023-10-08T13:06:13;3.47;;;2.17;;
76622;SDS011;73145;48.170;16.350;2023-10-08T13:08:50;3.33;;;2.17;;
76622;SDS011;73145;48.170;16.350;2023-10-08T13:11:20;5.20;;;2.38;;
76622;SDS011;73145;48.170;16.350;2023-10-08T13:13:53;3.40;;;2.28;;
76622;SDS011;73145;48.170;16.350;2023-10-08T13:16:24;6.07;;;2.20;;
76622;SDS011;73145;48.170;16.350;2023-10-08T13:18:51;2.85;;;2.13;;
76622;SDS011;73145;48.170;16.350;2023-10-08T13:21:22;2.58;;;1.83;;
76622;SDS011;73145;48.170;16.350;2023-10-08T13:23:51;3.88;;;2.08;;
76622;SDS011;73145;48.170;16.350;2023-10-08T13:26:25;5.10;;;2.10;;
76622;SDS011;73145;48.170;16.350;2023-10-08T13:28:58;4.95;;;2.55;;
76622;SDS011;73145;48.170;16.350;2023-10-08T13:31:26;4.90;;;2.22;;
76622;SDS011;73145;48.170;16.350;2023-10-08T13:33:52;5.00;;;2.30;;
76622;SDS011;73145;48.170;16.350;2023-10-08T13:36:22;3.30;;;2.20;;
76622;SDS011;73145;48.170;16.350;2023-10-08T13:38:49;3.55;;;2.30;;
76622;SDS011;73145;48.170;16.350;2023-10-08T13:41:17;3.90;;;2.50;;
76622;SDS011;73145;48.170;16.350;2023-10-08T13:43:49;7.88;;;2.60;;
76622;SDS011;73145;48.170;16.350;2023-10-08T13:46:24;4.38;;;2.53;;
76622;SDS011;73145;48.170;16.350;2023-10-08T13:48:51;3.42;;;2.40;;
76622;SDS011;73145;48.170;16.350;2023-10-08T13:51:18;3.72;;;2.05;;
76622;SDS011;73145;48.170;16.350;2023-10-08T13:53:54;3.35;;;2.03;;
76622;SDS011;73145;48.170;16.350;2023-10-08T13:56:31;4.50;;;2.55;;
76622;SDS011;73145;48.170;16.350;2023-10-08T13:58:59;4.45;;;2.30;;
76622;SDS011;73145;48.170;16.350;2023-10-08T14:01:38;4.38;;;2.15;;
76622;SDS011;73145;48.170;16.350;2023-10-08T14:04:17;4.45;;;2.50;;
76622;SDS011;73145;48.170;16.350;2023-10-08T14:06:51;6.00;;;2.55;;
76622;SDS011;73145;48.170;16.350;2023-10-08T14:09:18;5.65;;;2.33;;
76622;SDS011;73145;48.170;16.350;2023-10-08T14:11:56;4.03;;;2.05;;
76622;SDS011;73145;48.170;16.350;2023-10-08T14:14:22;3.00;;;2.10;;
76622;SDS011;73145;48.170;16.350;2023-10-08T14:16:54;3.90;;;2.10;;
76622;SDS011;73145;48.170;16.350;2023-10-08T14:19:31;4.70;;;2.30;;
76622;SDS011;73145;48.170;16.350;2023-10-08T14:22:33;5.13;;;2.55;;
76622;SDS011;73145;48.170;16.350;2023-10-08T14:25:00;4.13;;;2.45;;
76622;SDS011;73145;48.170;16.350;2023-10-08T14:27:27;4.90;;;3.00;;
76622;SDS011;73145;48.170;16.350;2023-10-08T14:29:57;5.40;;;2.38;;
76622;SDS011;73145;48.170;16.350;2023-10-08T14:32:27;4.45;;;2.75;;
76622;SDS011;73145;48.170;16.350;2023-10-08T14:34:53;4.80;;;3.20;;
76622;SDS011;73145;48.170;16.350;2023-10-08T14:37:20;5.05;;;2.58;;
76622;SDS011;73145;48.170;16.350;2023-10-08T14:40:08;6.38;;;3.60;;
76622;SDS011;73145;48.170;16.350;2023-10-08T14:42:53;8.13;;;3.95;;
76622;SDS011;73145;48.170;16.350;2023-10-08T14:45:31;5.80;;;3.38;;
76622;SDS011;73145;48.170;16.350;2023-10-08T14:48:01;6.13;;;3.10;;
76622;SDS011;73145;48.170;16.350;2023-10-08T14:50:27;6.07;;;3.33;;
76622;SDS011;73145;48.170;16.350;2023-10-08T14:52:58;5.30;;;2.85;;
76622;SDS011;73145;48.170;16.350;2023-10-08T14:55:26;7.38;;;3.17;;
76622;SDS011;73145;48.170;16.350;2023-10-08T14:57:52;4.75;;;3.35;;
76622;SDS011;73145;48.170;16.350;2023-10-08T15:00:20;4.75;;;2.90;;
76622;SDS011;73145;48.170;16.350;2023-10-08T15:02:52;4.60;;;2.72;;
76622;SDS011;73145;48.170;16.350;2023-10-08T15:05:21;5.18;;;2.60;;
76622;SDS011;73145;48.170;16.350;2023-10-08T15:07:51;5.05;;;2.75;;
76622;SDS011;73145;48.170;16.350;2023-10-08T15:10:18;4.32;;;2.97;;
76622;SDS011;73145;48.170;16.350;2023-10-08T15:12:46;3.47;;;2.70;;
76622;SDS011;73145;48.170;16.350;2023-10-08T15:15:14;5.60;;;2.72;;